Los Angeles (LAX/KLAX)

Information

Location
Los Angeles, CA
Local Time
18:54 / 6:54 pm
GMT Time
01:54 / 1:54 am
No FAA reported delays
METAR KLAX 270053Z 26014KT 10SM CLR 24/14 A2988 RMK AO2 SLP116 T02390139
TAF KLAX 262334Z 2700/2806 25014G20KT P6SM SKC FM270300 25010KT P6SM SKC FM270700 VRB03KT P6SM SKC FM271100 VRB03KT P6SM SCT006 FM271700 26008KT P6SM SKC FM272000 26014KT P6SM SKC FM280500 23006KT P6SM BKN010